createdAt,value
2017-09-11T00:00:30.417Z,99.99
2017-09-11T00:01:30.756Z,99.99
2017-09-11T00:02:30.784Z,99.99
2017-09-11T00:03:30.792Z,99.99
2017-09-11T00:04:45.485Z,99.99
2017-09-11T00:05:30.842Z,99.99
2017-09-11T00:06:30.856Z,99.99
2017-09-11T00:07:30.878Z,99.99
2017-09-11T00:08:30.938Z,99.99
2017-09-11T00:09:30.930Z,99.99
2017-09-11T00:10:30.946Z,99.99
2017-09-11T00:11:30.975Z,99.99
2017-09-11T00:12:30.992Z,99.99
2017-09-11T00:13:30.697Z,99.99
2017-09-11T00:14:31.026Z,99.99
2017-09-11T00:15:31.057Z,99.99
2017-09-11T00:16:31.084Z,99.99
2017-09-11T00:17:31.094Z,99.99
2017-09-11T00:18:31.121Z,99.99
2017-09-11T00:19:31.134Z,99.99
2017-09-11T00:20:31.161Z,99.99
2017-09-11T00:21:31.183Z,99.99
2017-09-11T00:22:30.896Z,99.99
2017-09-11T00:23:31.225Z,99.99
2017-09-11T00:24:31.252Z,99.99
2017-09-11T00:25:30.965Z,99.99
2017-09-11T00:26:31.287Z,99.99
2017-09-11T00:27:31.311Z,99.99
2017-09-11T00:28:31.024Z,99.99
2017-09-11T00:29:31.366Z,99.99
2017-09-11T00:30:31.387Z,99.99
2017-09-11T00:31:31.407Z,99.99
2017-09-11T00:32:31.417Z,99.99
2017-09-11T00:33:31.444Z,99.99
2017-09-11T00:34:31.159Z,99.99
2017-09-11T00:35:31.180Z,99.99
2017-09-11T00:36:46.129Z,99.99
2017-09-11T00:37:31.219Z,99.99
2017-09-11T00:38:31.559Z,99.99
2017-09-11T00:39:31.264Z,99.99
2017-09-11T00:40:31.284Z,99.99
2017-09-11T00:41:31.613Z,99.99
2017-09-11T00:42:31.641Z,99.99
2017-09-11T00:43:31.358Z,99.99
2017-09-11T00:45:31.712Z,99.99
2017-09-11T00:46:31.723Z,99.99
2017-09-11T00:47:31.748Z,99.99
2017-09-11T00:48:31.768Z,99.99
2017-09-11T00:49:31.797Z,99.99
2017-09-11T00:50:31.809Z,99.99
2017-09-11T00:51:31.832Z,99.99
2017-09-11T00:52:46.476Z,99.99
2017-09-11T00:53:31.884Z,99.99
2017-09-11T00:55:31.926Z,99.99
2017-09-11T00:56:31.937Z,99.99
2017-09-11T00:57:31.967Z,99.99
2017-09-11T00:58:31.987Z,99.99
2017-09-11T00:59:32.011Z,99.99
2017-09-11T01:00:32.040Z,99.99
2017-09-11T01:02:31.762Z,99.99
2017-09-11T01:03:32.091Z,99.99
2017-09-11T01:04:32.125Z,99.99
2017-09-11T01:05:32.136Z,99.99
2017-09-11T01:06:32.169Z,99.99
2017-09-11T01:07:31.871Z,99.99
2017-09-11T01:08:46.821Z,99.99
2017-09-11T01:09:32.218Z,99.99
2017-09-11T01:10:32.239Z,99.99
2017-09-11T01:11:31.964Z,99.99
2017-09-11T01:12:32.284Z,99.99
2017-09-11T01:13:32.304Z,99.99
2017-09-11T01:14:32.324Z,99.99
2017-09-11T01:15:32.349Z,99.99
2017-09-11T01:16:32.060Z,99.99
2017-09-11T01:17:32.087Z,99.99
2017-09-11T01:18:32.412Z,99.99
2017-09-11T01:19:32.127Z,99.99
2017-09-11T01:20:32.470Z,99.99
2017-09-11T01:21:32.483Z,99.99
2017-09-11T01:22:32.505Z,99.99
2017-09-11T01:23:32.526Z,99.99
2017-09-11T01:24:47.166Z,99.99
2017-09-11T01:25:32.576Z,99.99
2017-09-11T01:26:32.584Z,99.99
2017-09-11T01:27:32.617Z,99.99
2017-09-11T01:28:32.637Z,99.99
2017-09-11T01:29:32.657Z,99.99
2017-09-11T01:30:32.682Z,99.99
2017-09-11T01:31:32.697Z,99.99
2017-09-11T01:32:32.720Z,99.99
2017-09-11T01:33:32.733Z,99.99
2017-09-11T01:34:32.756Z,99.99
2017-09-11T01:35:32.778Z,99.99
2017-09-11T01:36:32.490Z,99.99
2017-09-11T01:37:32.831Z,99.99
2017-09-11T01:38:32.851Z,99.99
2017-09-11T01:39:47.486Z,99.99
2017-09-11T01:40:32.888Z,99.99
2017-09-11T01:41:32.907Z,99.99
2017-09-11T01:42:32.931Z,99.99
2017-09-11T01:43:32.956Z,99.99
2017-09-11T01:44:32.984Z,99.99
2017-09-11T01:45:33.024Z,99.99
2017-09-11T01:46:33.026Z,99.99
2017-09-11T01:47:33.042Z,99.99
2017-09-11T01:48:33.056Z,99.99
2017-09-11T01:49:33.078Z,99.99
2017-09-11T01:50:33.107Z,99.99
2017-09-11T01:52:33.159Z,99.99
2017-09-11T01:53:33.171Z,99.99
2017-09-11T01:54:33.193Z,99.99
2017-09-11T01:55:33.209Z,99.99
2017-09-11T01:56:33.227Z,99.99
2017-09-11T01:57:32.947Z,99.99
2017-09-11T01:58:33.275Z,99.99
2017-09-11T01:59:33.307Z,99.99
2017-09-11T02:00:33.004Z,99.99
2017-09-11T02:01:33.348Z,99.99
2017-09-11T02:02:33.360Z,99.99
2017-09-11T02:03:33.390Z,99.99
2017-09-11T02:04:33.401Z,99.99
2017-09-11T02:05:33.423Z,99.99
2017-09-11T02:06:33.502Z,99.99
2017-09-11T02:07:33.470Z,99.99
2017-09-11T02:08:33.493Z,99.99
2017-09-11T02:09:33.203Z,99.99
2017-09-11T02:10:33.533Z,99.99
2017-09-11T02:11:48.171Z,99.99
2017-09-11T02:12:33.573Z,99.99
2017-09-11T02:13:33.603Z,99.99
2017-09-11T02:14:33.616Z,99.99
2017-09-11T02:15:33.647Z,99.99
2017-09-11T02:16:33.658Z,99.99
2017-09-11T02:17:33.689Z,99.99
2017-09-11T02:18:33.711Z,99.99
2017-09-11T02:19:33.723Z,99.99
2017-09-11T02:20:33.747Z,99.99
2017-09-11T02:21:33.780Z,99.99
2017-09-11T02:22:33.791Z,99.99
2017-09-11T02:23:33.805Z,99.99
2017-09-11T02:24:33.828Z,99.99
2017-09-11T02:25:33.851Z,99.99
2017-09-11T02:26:33.882Z,99.99
2017-09-11T02:27:48.513Z,99.99
2017-09-11T02:28:33.926Z,99.99
2017-09-11T02:29:33.945Z,99.99
2017-09-11T02:30:33.968Z,99.99
2017-09-11T02:31:33.994Z,99.99
2017-09-11T02:32:33.999Z,99.99
2017-09-11T02:33:34.026Z,99.99
2017-09-11T02:34:34.054Z,99.99
2017-09-11T02:35:34.069Z,99.99
2017-09-11T02:36:34.086Z,99.99
2017-09-11T02:37:34.110Z,99.99
2017-09-11T02:38:34.140Z,99.99
2017-09-11T02:39:34.164Z,99.99
2017-09-11T02:40:34.178Z,99.99
2017-09-11T02:41:34.204Z,99.99
2017-09-11T02:42:34.214Z,99.99
2017-09-11T02:43:48.858Z,99.99
2017-09-11T02:44:34.299Z,99.99
2017-09-11T02:45:34.290Z,99.99
2017-09-11T02:46:33.990Z,99.99
2017-09-11T02:47:34.331Z,99.99
2017-09-11T02:48:34.342Z,99.99
2017-09-11T02:50:34.397Z,99.99
2017-09-11T02:51:34.416Z,99.99
2017-09-11T02:52:34.120Z,99.99
2017-09-11T02:54:34.469Z,99.99
2017-09-11T02:55:34.183Z,99.99
2017-09-11T02:56:34.512Z,99.99
2017-09-11T02:57:34.544Z,99.99
2017-09-11T02:58:34.245Z,99.99
2017-09-11T02:59:49.200Z,99.99
2017-09-11T03:00:34.607Z,99.99
2017-09-11T03:01:34.618Z,99.99
2017-09-11T03:02:34.645Z,99.99
2017-09-11T03:03:34.664Z,99.99
2017-09-11T03:04:34.691Z,99.99
2017-09-11T03:05:34.711Z,99.99
2017-09-11T03:06:34.727Z,99.99
2017-09-11T03:07:34.758Z,99.99
2017-09-11T03:09:34.482Z,99.99
2017-09-11T03:10:34.821Z,99.99
2017-09-11T03:11:34.840Z,99.99
2017-09-11T03:12:34.865Z,99.99
2017-09-11T03:13:34.884Z,99.99
2017-09-11T03:14:49.517Z,99.99
2017-09-11T03:15:34.927Z,99.99
2017-09-11T03:16:34.942Z,99.99
2017-09-11T03:17:34.958Z,99.99
2017-09-11T03:18:34.991Z,99.99
2017-09-11T03:19:35.006Z,99.99
2017-09-11T03:20:35.025Z,99.99
2017-09-11T03:21:35.052Z,99.99
2017-09-11T03:22:35.131Z,99.99
2017-09-11T03:23:35.090Z,99.99
2017-09-11T03:24:35.159Z,99.99
2017-09-11T03:25:35.140Z,99.99
2017-09-11T03:26:35.160Z,99.99
2017-09-11T03:27:35.185Z,99.99
2017-09-11T03:28:35.248Z,99.99
2017-09-11T03:29:35.226Z,99.99
2017-09-11T03:30:35.241Z,99.99
2017-09-11T03:31:35.275Z,99.99
2017-09-11T03:32:35.289Z,99.99
2017-09-11T03:33:35.299Z,99.99
2017-09-11T03:34:35.319Z,99.99
2017-09-11T03:35:35.349Z,99.99
2017-09-11T03:36:35.370Z,99.99
2017-09-11T03:37:35.383Z,99.99
2017-09-11T03:38:35.416Z,99.99
2017-09-11T03:39:35.426Z,99.99
2017-09-11T03:40:35.464Z,99.99
2017-09-11T03:41:35.470Z,99.99
2017-09-11T03:42:35.189Z,99.99
2017-09-11T03:43:35.521Z,99.99
2017-09-11T03:44:35.543Z,99.99
2017-09-11T03:45:35.560Z,99.99
2017-09-11T03:46:50.198Z,99.99
2017-09-11T03:47:35.288Z,99.99
2017-09-11T03:48:35.615Z,99.99
2017-09-11T03:49:35.637Z,99.99
2017-09-11T03:50:35.659Z,99.99
2017-09-11T03:51:35.694Z,99.99
2017-09-11T03:52:35.395Z,99.99
2017-09-11T03:53:35.739Z,99.99
2017-09-11T03:54:35.752Z,99.99
2017-09-11T03:55:35.459Z,99.99
2017-09-11T03:56:35.788Z,99.99
2017-09-11T03:57:35.497Z,99.99
2017-09-11T03:58:35.834Z,99.99
2017-09-11T03:59:35.854Z,99.99
2017-09-11T04:00:35.868Z,99.99
2017-09-11T04:01:35.902Z,99.99
2017-09-11T04:02:50.538Z,99.99
2017-09-11T04:03:35.959Z,99.99
2017-09-11T04:04:35.968Z,99.99
2017-09-11T04:05:35.984Z,99.99
2017-09-11T04:06:36.008Z,99.99
2017-09-11T04:07:36.024Z,99.99
2017-09-11T04:08:36.048Z,99.99
2017-09-11T04:09:36.064Z,99.99
2017-09-11T04:10:36.085Z,99.99
2017-09-11T04:11:36.111Z,99.99
2017-09-11T04:12:35.821Z,99.99
2017-09-11T04:13:35.837Z,99.99
2017-09-11T04:14:36.169Z,99.99
2017-09-11T04:15:36.193Z,99.99
2017-09-11T04:16:36.221Z,99.99
2017-09-11T04:18:50.872Z,99.99
2017-09-11T04:19:36.281Z,99.99
2017-09-11T04:20:36.338Z,99.99
2017-09-11T04:21:36.323Z,99.99
2017-09-11T04:22:36.342Z,99.99
2017-09-11T04:23:36.359Z,99.99
2017-09-11T04:24:36.388Z,99.99
2017-09-11T04:25:36.405Z,99.99
2017-09-11T04:26:36.430Z,99.99
2017-09-11T04:27:36.452Z,99.99
2017-09-11T04:28:36.463Z,99.99
2017-09-11T04:29:36.484Z,99.99
2017-09-11T04:30:36.510Z,99.99
2017-09-11T04:31:36.522Z,99.99
2017-09-11T04:32:36.546Z,99.99
2017-09-11T04:33:36.573Z,99.99
2017-09-11T04:34:51.210Z,99.99
2017-09-11T04:35:36.611Z,99.99
2017-09-11T04:36:36.635Z,99.99
2017-09-11T04:37:36.347Z,99.99
2017-09-11T04:38:36.681Z,99.99
2017-09-11T04:39:36.701Z,99.99
2017-09-11T04:40:36.726Z,99.99
2017-09-11T04:42:36.760Z,99.99
2017-09-11T04:43:36.786Z,99.99
2017-09-11T04:44:36.798Z,99.99
2017-09-11T04:45:36.830Z,99.99
2017-09-11T04:46:36.843Z,99.99
2017-09-11T04:47:36.863Z,99.99
2017-09-11T04:48:36.883Z,99.99
2017-09-11T04:49:51.529Z,99.99
2017-09-11T04:50:36.930Z,99.99
2017-09-11T04:51:36.946Z,99.99
2017-09-11T04:52:36.973Z,99.99
2017-09-11T04:53:36.991Z,99.99
2017-09-11T04:54:37.011Z,99.99
2017-09-11T04:55:37.039Z,99.99
2017-09-11T04:56:37.065Z,99.99
2017-09-11T04:57:37.078Z,99.99
2017-09-11T04:58:37.101Z,99.99
2017-09-11T04:59:37.116Z,99.99
2017-09-11T05:00:37.144Z,99.99
2017-09-11T05:01:37.160Z,99.99
2017-09-11T05:02:37.186Z,99.99
2017-09-11T05:03:37.210Z,99.99
2017-09-11T05:04:37.223Z,99.99
2017-09-11T05:05:37.254Z,99.99
2017-09-11T05:06:37.264Z,99.99
2017-09-11T05:07:37.330Z,99.99
2017-09-11T05:08:37.309Z,99.99
2017-09-11T05:09:37.337Z,99.99
2017-09-11T05:10:37.362Z,99.99
2017-09-11T05:11:37.373Z,99.99
2017-09-11T05:12:37.397Z,99.99
2017-09-11T05:13:37.771Z,99.99
2017-09-11T05:15:37.473Z,99.99
2017-09-11T05:16:37.489Z,99.99
2017-09-11T05:17:37.499Z,99.99
2017-09-11T05:19:37.545Z,99.99
2017-09-11T05:20:37.576Z,99.99
2017-09-11T05:21:52.211Z,99.99
2017-09-11T05:22:37.622Z,99.99
2017-09-11T05:25:37.367Z,99.99
2017-09-11T05:26:37.696Z,99.99
2017-09-11T05:27:37.722Z,99.99
2017-09-11T05:28:37.745Z,99.99
2017-09-11T05:29:37.461Z,99.99
2017-09-11T05:30:37.785Z,99.99
2017-09-11T05:31:37.495Z,99.99
2017-09-11T05:32:37.518Z,99.99
2017-09-11T05:33:37.849Z,99.99
2017-09-11T05:34:37.878Z,99.99
2017-09-11T05:35:37.898Z,99.99
2017-09-11T05:36:37.920Z,99.99
2017-09-11T05:37:52.552Z,99.99
2017-09-11T05:40:38.004Z,99.99
2017-09-11T05:41:38.020Z,99.99
2017-09-11T05:42:37.732Z,99.99
2017-09-11T05:44:38.094Z,99.99
2017-09-11T05:45:37.797Z,99.99
2017-09-11T05:46:38.128Z,99.99
2017-09-11T05:47:38.151Z,99.99
2017-09-11T05:48:38.202Z,99.99
2017-09-11T05:49:38.254Z,99.99
2017-09-11T05:50:38.223Z,99.99
2017-09-11T05:51:37.933Z,99.99
2017-09-11T05:52:38.270Z,99.99
2017-09-11T05:53:52.903Z,99.99
2017-09-11T05:54:37.996Z,99.99
2017-09-11T05:55:38.025Z,99.99
2017-09-11T05:56:38.045Z,99.99
2017-09-11T05:57:38.071Z,99.99
2017-09-11T05:58:38.406Z,99.99
2017-09-11T05:59:38.417Z,99.99
2017-09-11T06:00:38.133Z,97.23
2017-09-11T06:01:38.164Z,96.18
2017-09-11T06:02:38.180Z,93.83
2017-09-11T06:04:38.546Z,91
2017-09-11T06:05:38.575Z,90.05
2017-09-11T06:06:38.592Z,89.9
2017-09-11T06:07:38.630Z,88.17
2017-09-11T06:08:38.650Z,86.97
2017-09-11T06:09:53.292Z,85.28
2017-09-11T06:10:38.393Z,85
2017-09-11T06:11:38.733Z,83.8
2017-09-11T06:12:38.767Z,82.74
2017-09-11T06:13:38.778Z,81.3
2017-09-11T06:14:38.821Z,81.53
2017-09-11T06:15:38.842Z,79.94
2017-09-11T06:16:38.864Z,79.07
2017-09-11T06:17:38.903Z,79.07
2017-09-11T06:18:38.620Z,78.3
2017-09-11T06:19:38.645Z,77.25
2017-09-11T06:20:38.992Z,76.61
2017-09-11T06:21:39.013Z,76.04
2017-09-11T06:22:39.079Z,75.84
2017-09-11T06:23:39.071Z,75.46
2017-09-11T06:24:53.730Z,74.88
2017-09-11T06:25:39.185Z,75.07
2017-09-11T06:26:39.170Z,74.05
2017-09-11T06:28:39.231Z,73.71
2017-09-11T06:29:39.263Z,73.13
2017-09-11T06:30:39.292Z,73.61
2017-09-11T06:31:39.383Z,72.36
2017-09-11T06:32:39.365Z,71.59
2017-09-11T06:33:39.087Z,71.72
2017-09-11T06:34:39.421Z,70.47
2017-09-11T06:35:39.147Z,69.99
2017-09-11T06:36:39.176Z,70.66
2017-09-11T06:37:39.526Z,70.56
2017-09-11T06:38:39.244Z,70.56
2017-09-11T06:39:39.595Z,69.73
2017-09-11T06:40:39.615Z,69.89
2017-09-11T06:42:39.683Z,69.89
2017-09-11T06:44:39.446Z,68.13
2017-09-11T06:45:39.776Z,68.68
2017-09-11T06:47:39.844Z,67.94
2017-09-11T06:48:39.582Z,67.55
2017-09-11T06:49:39.603Z,67.16
2017-09-11T06:50:39.635Z,67.07
2017-09-11T06:51:39.674Z,65.27
2017-09-11T06:52:40.018Z,66.04
2017-09-11T06:53:40.044Z,64.05
2017-09-11T06:54:40.075Z,64.92
2017-09-11T06:55:40.260Z,65.2
2017-09-11T06:56:54.765Z,64.05
2017-09-11T06:57:39.869Z,64.69
2017-09-11T06:58:40.221Z,64.59
2017-09-11T06:59:40.252Z,64.89
2017-09-11T07:00:39.970Z,64.89
2017-09-11T07:01:40.318Z,65.08
2017-09-11T07:02:40.355Z,63.95
2017-09-11T07:03:40.074Z,64.92
2017-09-11T07:04:40.417Z,65.08
2017-09-11T07:05:40.450Z,64.21
2017-09-11T07:06:40.479Z,64.21
2017-09-11T07:07:40.519Z,63.47
2017-09-11T07:08:40.542Z,63.09
2017-09-11T07:09:40.580Z,62.63
2017-09-11T07:10:40.298Z,61.38
2017-09-11T07:12:55.300Z,61.99
2017-09-11T07:13:40.716Z,60.25
2017-09-11T07:15:40.777Z,60.44
2017-09-11T07:16:40.820Z,60.28
2017-09-11T07:17:40.855Z,61.12
2017-09-11T07:18:40.877Z,61.31
2017-09-11T07:19:40.912Z,62.25
2017-09-11T07:20:40.948Z,62.73
2017-09-11T07:21:40.982Z,62.63
2017-09-11T07:22:41.012Z,63.85
2017-09-11T07:23:41.041Z,65.08
2017-09-11T07:24:41.083Z,63.57
2017-09-11T07:25:41.115Z,64.82
2017-09-11T07:26:41.148Z,63.47
2017-09-11T07:27:41.169Z,61.99
2017-09-11T07:28:55.826Z,62.44
2017-09-11T07:29:41.240Z,62.79
2017-09-11T07:30:41.273Z,62.7
2017-09-11T07:31:41.311Z,63.85
2017-09-11T07:33:41.373Z,65.43
2017-09-11T07:34:41.402Z,65.14
2017-09-11T07:35:41.428Z,66.01
2017-09-11T07:36:41.469Z,65.81
2017-09-11T07:38:41.529Z,67.13
2017-09-11T07:39:41.560Z,68.35
2017-09-11T07:40:41.278Z,68.54
2017-09-11T07:41:41.622Z,68.19
2017-09-11T07:42:41.339Z,67.33
2017-09-11T07:43:41.671Z,66.49
2017-09-11T07:44:56.321Z,66.01
2017-09-11T07:45:41.733Z,65.66
2017-09-11T07:46:41.763Z,64.89
2017-09-11T07:47:41.785Z,63.95
2017-09-11T07:48:41.825Z,63.89
2017-09-11T07:49:41.862Z,62.63
2017-09-11T07:50:41.884Z,62.73
2017-09-11T07:51:41.601Z,63.76
2017-09-11T07:52:41.935Z,62.63
2017-09-11T07:53:41.980Z,62.63
2017-09-11T07:55:42.035Z,61.51
2017-09-11T07:56:41.746Z,61.6
2017-09-11T07:57:42.085Z,61.41
2017-09-11T07:58:42.117Z,62.57
2017-09-11T07:59:56.771Z,62.34
2017-09-11T08:00:42.185Z,62.34
2017-09-11T08:01:42.214Z,61.96
2017-09-11T08:03:42.270Z,63.02
2017-09-11T08:04:41.997Z,62.34
2017-09-11T08:05:42.326Z,63.57
2017-09-11T08:06:42.362Z,64.79
2017-09-11T08:07:42.394Z,64.98
2017-09-11T08:08:42.110Z,65.37
2017-09-11T08:09:42.136Z,66.24
2017-09-11T08:10:42.478Z,64.98
2017-09-11T08:11:42.500Z,65.66
2017-09-11T08:12:42.540Z,64.79
2017-09-11T08:13:42.257Z,65.56
2017-09-11T08:14:42.591Z,66.82
2017-09-11T08:15:42.626Z,66.14
2017-09-11T08:16:42.652Z,66.04
2017-09-11T08:17:42.676Z,65.75
2017-09-11T08:18:42.708Z,65.85
2017-09-11T08:19:42.727Z,65.63
2017-09-11T08:20:42.448Z,67.07
2017-09-11T08:21:42.483Z,66.69
2017-09-11T08:22:42.510Z,66.69
2017-09-11T08:23:42.535Z,67.26
2017-09-11T08:24:42.557Z,67.26
2017-09-11T08:25:42.594Z,66.69
2017-09-11T08:26:42.617Z,66.3
2017-09-11T08:27:42.960Z,66.69
2017-09-11T08:28:42.676Z,66.69
2017-09-11T08:29:43.014Z,66.3
2017-09-11T08:30:42.725Z,65.53
2017-09-11T08:31:57.684Z,65.05
2017-09-11T08:32:43.088Z,65.91
2017-09-11T08:33:43.116Z,65.33
2017-09-11T08:34:43.144Z,65.33
2017-09-11T08:35:43.172Z,65.81
2017-09-11T08:36:42.893Z,66.97
2017-09-11T08:37:43.232Z,66.59
2017-09-11T08:38:42.945Z,65.63
2017-09-11T08:39:42.976Z,66.01
2017-09-11T08:40:43.308Z,65.63
2017-09-11T08:41:43.027Z,67.26
2017-09-11T08:42:43.373Z,66.78
2017-09-11T08:43:43.128Z,66.2
2017-09-11T08:44:43.423Z,65.69
2017-09-11T08:45:43.447Z,65.81
2017-09-11T08:46:43.479Z,65.14
2017-09-11T08:47:58.116Z,65.81
2017-09-11T08:48:43.521Z,65.91
2017-09-11T08:49:43.547Z,65.4
2017-09-11T08:50:43.583Z,65.33
2017-09-11T08:51:43.614Z,65.69
2017-09-11T08:52:43.625Z,65.59
2017-09-11T08:53:43.655Z,65.01
2017-09-11T08:54:43.687Z,64.76
2017-09-11T08:55:43.707Z,64.76
2017-09-11T08:56:43.738Z,65.05
2017-09-11T08:57:43.761Z,65.33
2017-09-11T08:58:43.795Z,65.78
2017-09-11T08:59:43.817Z,65.01
2017-09-11T09:00:43.846Z,65.88
2017-09-11T09:01:43.870Z,65.88
2017-09-11T09:02:43.893Z,65.11
2017-09-11T09:03:58.543Z,65.88
2017-09-11T09:04:43.955Z,65.11
2017-09-11T09:06:44.011Z,65.59
2017-09-11T09:07:44.031Z,65.59
2017-09-11T09:08:44.058Z,65.78
2017-09-11T09:09:44.076Z,65.5
2017-09-11T09:10:44.110Z,65.59
2017-09-11T09:12:44.170Z,67.33
2017-09-11T09:13:44.183Z,66.55
2017-09-11T09:14:44.206Z,66.07
2017-09-11T09:15:44.244Z,65.98
2017-09-11T09:16:44.269Z,65.78
2017-09-11T09:17:44.289Z,66.55
2017-09-11T09:18:44.321Z,65.5
2017-09-11T09:19:58.962Z,65.3
2017-09-11T09:20:44.375Z,66.27
2017-09-11T09:21:44.402Z,65.3
2017-09-11T09:22:44.416Z,65.2
2017-09-11T09:23:44.446Z,64.53
2017-09-11T09:24:44.470Z,65.63
2017-09-11T09:25:44.496Z,65.2
2017-09-11T09:26:44.527Z,65.05
2017-09-11T09:27:44.554Z,64.95
2017-09-11T09:28:44.572Z,64.08
2017-09-11T09:29:44.601Z,64.08
2017-09-11T09:30:44.316Z,64.18
2017-09-11T09:31:44.665Z,63.41
2017-09-11T09:32:44.679Z,64.18
2017-09-11T09:33:44.399Z,63.98
2017-09-11T09:34:59.354Z,64.5
2017-09-11T09:35:44.764Z,63.24
2017-09-11T09:36:44.792Z,62.09
2017-09-11T09:37:44.811Z,62.7
2017-09-11T09:38:44.842Z,61.06
2017-09-11T09:39:44.919Z,60.22
2017-09-11T09:40:44.890Z,60.86
2017-09-11T09:41:44.918Z,61.44
2017-09-11T09:42:44.961Z,61.06
2017-09-11T09:43:44.659Z,61.06
2017-09-11T09:44:45.010Z,60.22
2017-09-11T09:45:45.026Z,59.58
2017-09-11T09:46:45.059Z,59.38
2017-09-11T09:47:45.074Z,59.19
2017-09-11T09:48:45.136Z,58.9
2017-09-11T09:49:44.817Z,58.15
2017-09-11T09:50:45.173Z,56.25
2017-09-11T09:51:45.182Z,56.57
2017-09-11T09:52:45.213Z,55.31
2017-09-11T09:53:45.245Z,55.05
2017-09-11T09:54:45.277Z,54.93
2017-09-11T09:55:45.301Z,56.25
2017-09-11T09:56:45.319Z,56.25
2017-09-11T09:57:45.352Z,56.51
2017-09-11T09:58:45.379Z,57.67
2017-09-11T09:59:45.404Z,56.8
2017-09-11T10:00:45.425Z,56.61
2017-09-11T10:01:45.146Z,56.32
2017-09-11T10:02:45.482Z,56.8
2017-09-11T10:03:45.514Z,56.35
2017-09-11T10:04:45.544Z,55.47
2017-09-11T10:05:45.570Z,55.21
2017-09-11T10:07:00.214Z,55.29
2017-09-11T10:07:45.625Z,55.6
2017-09-11T10:08:45.650Z,55.11
2017-09-11T10:09:45.367Z,55.31
2017-09-11T10:10:45.707Z,55.7
2017-09-11T10:11:45.725Z,55.02
2017-09-11T10:12:45.450Z,55.51
2017-09-11T10:13:45.480Z,55.31
2017-09-11T10:14:45.808Z,55.96
2017-09-11T10:15:45.529Z,56.15
2017-09-11T10:16:45.875Z,55.57
2017-09-11T10:17:45.898Z,56.41
2017-09-11T10:18:45.927Z,56.41
2017-09-11T10:19:45.947Z,56.13
2017-09-11T10:20:45.978Z,56.32
2017-09-11T10:21:46.004Z,56.99
2017-09-11T10:23:00.656Z,57.67
2017-09-11T10:23:46.063Z,56.93
2017-09-11T10:24:46.097Z,56.83
2017-09-11T10:25:46.117Z,58.57
2017-09-11T10:26:45.841Z,56.32
2017-09-11T10:27:45.868Z,57.48
2017-09-11T10:28:46.203Z,57.21
2017-09-11T10:29:46.233Z,56.93
2017-09-11T10:30:46.264Z,56.15
2017-09-11T10:32:46.314Z,54.71
2017-09-11T10:33:46.031Z,54.44
2017-09-11T10:34:46.371Z,54.44
2017-09-11T10:35:46.085Z,53.96
2017-09-11T10:36:46.422Z,53.21
2017-09-11T10:37:46.456Z,53.21
2017-09-11T10:39:01.100Z,53.21
2017-09-11T10:39:46.511Z,52.34
2017-09-11T10:40:46.548Z,52.63
2017-09-11T10:41:46.255Z,52.14
2017-09-11T10:42:46.590Z,52.53
2017-09-11T10:43:46.613Z,53.28
2017-09-11T10:44:46.339Z,52.99
2017-09-11T10:45:46.672Z,53.19
2017-09-11T10:46:46.391Z,53.57
2017-09-11T10:47:46.736Z,52.89
2017-09-11T10:48:46.759Z,52.77
2017-09-11T10:49:46.792Z,53.06
2017-09-11T10:50:46.812Z,53.42
2017-09-11T10:51:46.849Z,53.83
2017-09-11T10:52:46.864Z,53.74
2017-09-11T10:53:46.898Z,52.67
2017-09-11T10:55:01.542Z,54.03
2017-09-11T10:55:46.955Z,53.93
2017-09-11T10:56:46.667Z,53.83
2017-09-11T10:57:47.009Z,52.31
2017-09-11T10:58:47.035Z,51.06
2017-09-11T10:59:47.066Z,51.15
2017-09-11T11:00:47.097Z,51.15
2017-09-11T11:01:46.807Z,51.35
2017-09-11T11:02:47.139Z,51.28
2017-09-11T11:03:47.176Z,52.02
2017-09-11T11:04:47.198Z,51.28
2017-09-11T11:05:47.223Z,50.86
2017-09-11T11:06:47.253Z,51.86
2017-09-11T11:07:47.280Z,51.76
2017-09-11T11:08:47.309Z,51.28
2017-09-11T11:10:01.947Z,50.98
2017-09-11T11:10:47.044Z,51.44
2017-09-11T11:11:47.078Z,51.25
2017-09-11T11:12:47.414Z,51.06
2017-09-11T11:13:47.432Z,51.54
2017-09-11T11:14:47.461Z,52.12
2017-09-11T11:15:47.490Z,51.51
2017-09-11T11:16:47.517Z,50.67
2017-09-11T11:17:47.550Z,50.67
2017-09-11T11:18:47.267Z,50.65
2017-09-11T11:19:47.603Z,51.03
2017-09-11T11:20:47.635Z,51.51
2017-09-11T11:21:47.347Z,51.03
2017-09-11T11:22:47.673Z,50.96
2017-09-11T11:23:47.711Z,50.38
2017-09-11T11:24:47.742Z,50.38
2017-09-11T11:25:47.770Z,50.09
2017-09-11T11:26:47.791Z,49.6
2017-09-11T11:27:47.816Z,50.67
2017-09-11T11:28:47.853Z,50.28
2017-09-11T11:29:47.558Z,50.67
2017-09-11T11:30:47.896Z,50.79
2017-09-11T11:31:47.927Z,50.48
2017-09-11T11:32:47.965Z,51.25
2017-09-11T11:33:47.980Z,50.67
2017-09-11T11:34:48.008Z,52.89
2017-09-11T11:35:48.025Z,50.86
2017-09-11T11:37:47.772Z,51.13
2017-09-11T11:38:48.110Z,50.65
2017-09-11T11:39:48.146Z,51.51
2017-09-11T11:40:48.162Z,52.19
2017-09-11T11:42:02.809Z,51.81
2017-09-11T11:42:48.214Z,52.39
2017-09-11T11:44:47.961Z,52.39
2017-09-11T11:45:48.302Z,52
2017-09-11T11:46:48.334Z,51.87
2017-09-11T11:47:48.350Z,51.97
2017-09-11T11:48:48.387Z,53.03
2017-09-11T11:50:48.441Z,52.07
2017-09-11T11:51:48.454Z,52.65
2017-09-11T11:52:48.481Z,53.33
2017-09-11T11:53:48.519Z,53.49
2017-09-11T11:54:48.536Z,53.52
2017-09-11T11:55:48.621Z,54.1
2017-09-11T11:56:48.598Z,52.87
2017-09-11T11:58:03.237Z,52.77
2017-09-11T11:58:48.653Z,52.51
2017-09-11T11:59:48.677Z,52.58
2017-09-11T12:00:48.703Z,51.93
2017-09-11T12:01:48.723Z,52.58
2017-09-11T12:02:48.748Z,52
2017-09-11T12:03:48.824Z,51.9
2017-09-11T12:04:48.808Z,52.97
2017-09-11T12:05:48.840Z,51.81
2017-09-11T12:06:48.862Z,52.09
2017-09-11T12:07:48.885Z,53.45
2017-09-11T12:08:48.919Z,53.06
2017-09-11T12:09:48.944Z,52.87
2017-09-11T12:10:48.962Z,53.16
2017-09-11T12:11:48.999Z,53.74
2017-09-11T12:12:49.021Z,53.42
2017-09-11T12:14:03.663Z,53.13
2017-09-11T12:14:49.072Z,53.03
2017-09-11T12:15:49.101Z,53.23
2017-09-11T12:16:49.126Z,52.91
2017-09-11T12:17:49.160Z,52.65
2017-09-11T12:18:49.188Z,53.88
2017-09-11T12:19:49.199Z,53.81
2017-09-11T12:20:49.234Z,53.49
2017-09-11T12:21:49.258Z,54
2017-09-11T12:22:49.280Z,53.81
2017-09-11T12:23:49.309Z,55.07
2017-09-11T12:24:49.334Z,54.39
2017-09-11T12:25:49.364Z,54.36
2017-09-11T12:26:49.130Z,55.04
2017-09-11T12:27:49.423Z,53.71
2017-09-11T12:28:49.442Z,54.58
2017-09-11T12:30:04.092Z,54.39
2017-09-11T12:30:49.501Z,54.46
2017-09-11T12:32:49.553Z,55.4
2017-09-11T12:33:49.584Z,55.1
2017-09-11T12:34:49.608Z,55.88
2017-09-11T12:35:49.628Z,56.16
2017-09-11T12:36:49.659Z,56.56
2017-09-11T12:37:49.693Z,56.46
2017-09-11T12:38:49.721Z,56.94
2017-09-11T12:39:49.743Z,56.36
2017-09-11T12:40:49.765Z,56.2
2017-09-11T12:41:49.783Z,57.14
2017-09-11T12:42:49.821Z,56.29
2017-09-11T12:43:49.848Z,57.06
2017-09-11T12:45:04.486Z,56.84
2017-09-11T12:45:49.895Z,57.71
2017-09-11T12:47:49.957Z,56.39
2017-09-11T12:48:49.979Z,56.68
2017-09-11T12:49:50.004Z,57.84
2017-09-11T12:51:50.049Z,57.06
2017-09-11T12:52:50.076Z,56.84
2017-09-11T12:53:50.110Z,57.74
2017-09-11T12:54:50.127Z,56.29
2017-09-11T12:55:50.161Z,56.68
2017-09-11T12:56:49.873Z,56.68
2017-09-11T12:57:50.214Z,56.58
2017-09-11T12:58:50.241Z,57.06
2017-09-11T12:59:50.270Z,56.68
2017-09-11T13:00:50.291Z,57.45
2017-09-11T13:01:50.311Z,57.64
2017-09-11T13:02:50.029Z,56.87
2017-09-11T13:03:50.062Z,57.35
2017-09-11T13:04:50.388Z,57.06
2017-09-11T13:05:50.424Z,56.77
2017-09-11T13:07:50.467Z,56.87
2017-09-11T13:10:50.551Z,57.54
2017-09-11T13:11:50.581Z,57.9
2017-09-11T13:12:50.610Z,57.62
2017-09-11T13:13:50.638Z,57.9
2017-09-11T13:14:50.652Z,58.39
2017-09-11T13:15:50.682Z,57.81
2017-09-11T13:17:05.329Z,57.62
2017-09-11T13:17:50.740Z,57.06
2017-09-11T13:18:50.767Z,57.35
2017-09-11T13:19:50.785Z,57.93
2017-09-11T13:20:50.810Z,58.32
2017-09-11T13:21:50.848Z,59.35
2017-09-11T13:22:50.863Z,59.71
2017-09-11T13:23:50.886Z,60.13
2017-09-11T13:24:50.923Z,60.96
2017-09-11T13:25:50.944Z,61.06
2017-09-11T13:27:51.003Z,60.96
2017-09-11T13:28:51.024Z,61.25
2017-09-11T13:29:50.736Z,61.06
2017-09-11T13:30:51.085Z,61.06
2017-09-11T13:31:51.095Z,61.67
2017-09-11T13:33:05.749Z,60.31
2017-09-11T13:34:51.187Z,60.61
2017-09-11T13:35:51.202Z,59.77